sensor_id;sensor_type;location;lat;lon;timestamp;P1;durP1;ratioP1;P2;durP2;ratioP2
44995;SDS011;30729;49.486;10.792;2023-07-09T00:02:00;10.02;;;5.47;;
44995;SDS011;30729;49.486;10.792;2023-07-09T00:04:26;10.32;;;5.93;;
44995;SDS011;30729;49.486;10.792;2023-07-09T00:06:53;12.20;;;5.68;;
44995;SDS011;30729;49.486;10.792;2023-07-09T00:09:20;10.95;;;5.95;;
44995;SDS011;30729;49.486;10.792;2023-07-09T00:11:45;12.80;;;6.35;;
44995;SDS011;30729;49.486;10.792;2023-07-09T00:14:11;9.10;;;5.35;;
44995;SDS011;30729;49.486;10.792;2023-07-09T00:16:37;8.90;;;5.00;;
44995;SDS011;30729;49.486;10.792;2023-07-09T00:19:03;8.93;;;5.07;;
44995;SDS011;30729;49.486;10.792;2023-07-09T00:21:29;9.57;;;5.55;;
44995;SDS011;30729;49.486;10.792;2023-07-09T00:23:59;10.52;;;5.82;;
44995;SDS011;30729;49.486;10.792;2023-07-09T00:26:30;11.32;;;5.90;;
44995;SDS011;30729;49.486;10.792;2023-07-09T00:28:55;10.68;;;5.13;;
44995;SDS011;30729;49.486;10.792;2023-07-09T00:31:20;9.50;;;4.63;;
44995;SDS011;30729;49.486;10.792;2023-07-09T00:33:48;10.95;;;5.82;;
44995;SDS011;30729;49.486;10.792;2023-07-09T00:36:18;10.00;;;5.82;;
44995;SDS011;30729;49.486;10.792;2023-07-09T00:38:43;11.75;;;6.15;;
44995;SDS011;30729;49.486;10.792;2023-07-09T00:41:14;9.20;;;5.65;;
44995;SDS011;30729;49.486;10.792;2023-07-09T00:43:42;10.85;;;5.45;;
44995;SDS011;30729;49.486;10.792;2023-07-09T00:47:10;10.82;;;5.28;;
44995;SDS011;30729;49.486;10.792;2023-07-09T00:49:02;11.70;;;6.03;;
44995;SDS011;30729;49.486;10.792;2023-07-09T00:51:32;9.98;;;5.72;;
44995;SDS011;30729;49.486;10.792;2023-07-09T00:53:58;10.13;;;5.80;;
44995;SDS011;30729;49.486;10.792;2023-07-09T00:56:33;11.55;;;6.10;;
44995;SDS011;30729;49.486;10.792;2023-07-09T00:58:59;9.25;;;5.45;;
44995;SDS011;30729;49.486;10.792;2023-07-09T01:01:26;10.02;;;5.60;;
44995;SDS011;30729;49.486;10.792;2023-07-09T01:03:53;11.27;;;5.72;;
44995;SDS011;30729;49.486;10.792;2023-07-09T01:06:24;10.65;;;5.68;;
44995;SDS011;30729;49.486;10.792;2023-07-09T01:08:51;10.38;;;5.95;;
44995;SDS011;30729;49.486;10.792;2023-07-09T01:11:19;12.05;;;6.32;;
44995;SDS011;30729;49.486;10.792;2023-07-09T01:13:52;12.77;;;6.18;;
44995;SDS011;30729;49.486;10.792;2023-07-09T01:16:19;10.60;;;5.70;;
44995;SDS011;30729;49.486;10.792;2023-07-09T01:18:48;10.77;;;5.90;;
44995;SDS011;30729;49.486;10.792;2023-07-09T01:21:13;14.38;;;6.40;;
44995;SDS011;30729;49.486;10.792;2023-07-09T01:23:42;12.60;;;6.45;;
44995;SDS011;30729;49.486;10.792;2023-07-09T01:26:09;11.25;;;5.80;;
44995;SDS011;30729;49.486;10.792;2023-07-09T01:28:36;11.50;;;5.93;;
44995;SDS011;30729;49.486;10.792;2023-07-09T01:31:01;12.53;;;6.50;;
44995;SDS011;30729;49.486;10.792;2023-07-09T01:33:27;9.85;;;6.10;;
44995;SDS011;30729;49.486;10.792;2023-07-09T01:35:52;10.52;;;5.88;;
44995;SDS011;30729;49.486;10.792;2023-07-09T01:38:18;9.52;;;5.60;;
44995;SDS011;30729;49.486;10.792;2023-07-09T01:40:45;10.68;;;6.07;;
44995;SDS011;30729;49.486;10.792;2023-07-09T01:43:11;10.23;;;6.30;;
44995;SDS011;30729;49.486;10.792;2023-07-09T01:45:36;11.13;;;6.15;;
44995;SDS011;30729;49.486;10.792;2023-07-09T01:48:02;12.30;;;6.15;;
44995;SDS011;30729;49.486;10.792;2023-07-09T01:50:27;10.45;;;5.80;;
44995;SDS011;30729;49.486;10.792;2023-07-09T01:52:53;11.63;;;5.85;;
44995;SDS011;30729;49.486;10.792;2023-07-09T01:55:19;10.85;;;5.60;;
44995;SDS011;30729;49.486;10.792;2023-07-09T01:57:44;10.13;;;5.72;;
44995;SDS011;30729;49.486;10.792;2023-07-09T02:00:11;13.57;;;6.72;;
44995;SDS011;30729;49.486;10.792;2023-07-09T02:02:38;11.10;;;6.38;;
44995;SDS011;30729;49.486;10.792;2023-07-09T02:05:04;12.88;;;6.70;;
44995;SDS011;30729;49.486;10.792;2023-07-09T02:07:29;10.10;;;5.95;;
44995;SDS011;30729;49.486;10.792;2023-07-09T02:09:55;11.73;;;5.83;;
44995;SDS011;30729;49.486;10.792;2023-07-09T02:12:20;11.07;;;5.77;;
44995;SDS011;30729;49.486;10.792;2023-07-09T02:14:45;9.48;;;5.53;;
44995;SDS011;30729;49.486;10.792;2023-07-09T02:17:11;10.85;;;5.85;;
44995;SDS011;30729;49.486;10.792;2023-07-09T02:19:36;12.43;;;6.22;;
44995;SDS011;30729;49.486;10.792;2023-07-09T02:22:02;9.38;;;5.32;;
44995;SDS011;30729;49.486;10.792;2023-07-09T02:24:27;14.20;;;6.43;;
44995;SDS011;30729;49.486;10.792;2023-07-09T02:26:55;10.63;;;6.00;;
44995;SDS011;30729;49.486;10.792;2023-07-09T02:29:21;9.93;;;5.75;;
44995;SDS011;30729;49.486;10.792;2023-07-09T02:31:48;9.50;;;5.57;;
44995;SDS011;30729;49.486;10.792;2023-07-09T02:34:13;10.02;;;5.97;;
44995;SDS011;30729;49.486;10.792;2023-07-09T02:36:38;9.47;;;5.80;;
44995;SDS011;30729;49.486;10.792;2023-07-09T02:39:07;10.75;;;6.25;;
44995;SDS011;30729;49.486;10.792;2023-07-09T02:41:33;9.47;;;5.70;;
44995;SDS011;30729;49.486;10.792;2023-07-09T02:43:58;10.57;;;6.32;;
44995;SDS011;30729;49.486;10.792;2023-07-09T02:46:23;12.47;;;6.37;;
44995;SDS011;30729;49.486;10.792;2023-07-09T02:48:48;9.33;;;6.20;;
44995;SDS011;30729;49.486;10.792;2023-07-09T02:51:14;10.63;;;5.93;;
44995;SDS011;30729;49.486;10.792;2023-07-09T02:53:39;10.60;;;6.28;;
44995;SDS011;30729;49.486;10.792;2023-07-09T02:56:04;11.37;;;6.13;;
44995;SDS011;30729;49.486;10.792;2023-07-09T02:58:29;10.73;;;6.33;;
44995;SDS011;30729;49.486;10.792;2023-07-09T03:00:54;12.60;;;6.13;;
44995;SDS011;30729;49.486;10.792;2023-07-09T03:03:20;11.35;;;6.05;;
44995;SDS011;30729;49.486;10.792;2023-07-09T03:05:48;12.50;;;6.43;;
44995;SDS011;30729;49.486;10.792;2023-07-09T03:08:13;13.25;;;6.35;;
44995;SDS011;30729;49.486;10.792;2023-07-09T03:10:39;10.98;;;6.32;;
44995;SDS011;30729;49.486;10.792;2023-07-09T03:13:04;11.93;;;6.30;;
44995;SDS011;30729;49.486;10.792;2023-07-09T03:15:30;10.37;;;5.93;;
44995;SDS011;30729;49.486;10.792;2023-07-09T03:17:55;14.35;;;7.10;;
44995;SDS011;30729;49.486;10.792;2023-07-09T03:20:21;11.25;;;6.47;;
44995;SDS011;30729;49.486;10.792;2023-07-09T03:22:46;10.57;;;6.33;;
44995;SDS011;30729;49.486;10.792;2023-07-09T03:25:11;10.23;;;6.27;;
44995;SDS011;30729;49.486;10.792;2023-07-09T03:27:36;13.23;;;6.10;;
44995;SDS011;30729;49.486;10.792;2023-07-09T03:30:01;10.93;;;6.35;;
44995;SDS011;30729;49.486;10.792;2023-07-09T03:32:27;11.50;;;6.50;;
44995;SDS011;30729;49.486;10.792;2023-07-09T03:34:52;10.57;;;6.10;;
44995;SDS011;30729;49.486;10.792;2023-07-09T03:37:18;10.43;;;6.40;;
44995;SDS011;30729;49.486;10.792;2023-07-09T03:39:45;10.85;;;6.28;;
44995;SDS011;30729;49.486;10.792;2023-07-09T03:42:10;12.85;;;6.57;;
44995;SDS011;30729;49.486;10.792;2023-07-09T03:44:35;11.10;;;6.60;;
44995;SDS011;30729;49.486;10.792;2023-07-09T03:47:00;11.57;;;6.38;;
44995;SDS011;30729;49.486;10.792;2023-07-09T03:49:25;12.00;;;6.68;;
44995;SDS011;30729;49.486;10.792;2023-07-09T03:51:51;9.65;;;5.95;;
44995;SDS011;30729;49.486;10.792;2023-07-09T03:54:16;10.90;;;7.03;;
44995;SDS011;30729;49.486;10.792;2023-07-09T03:56:41;13.80;;;6.47;;
44995;SDS011;30729;49.486;10.792;2023-07-09T03:59:06;10.70;;;6.57;;
44995;SDS011;30729;49.486;10.792;2023-07-09T04:01:31;12.90;;;6.45;;
44995;SDS011;30729;49.486;10.792;2023-07-09T04:03:56;12.35;;;6.13;;
44995;SDS011;30729;49.486;10.792;2023-07-09T04:06:22;9.30;;;5.70;;
44995;SDS011;30729;49.486;10.792;2023-07-09T04:08:47;10.40;;;6.65;;
44995;SDS011;30729;49.486;10.792;2023-07-09T04:11:12;12.75;;;6.53;;
44995;SDS011;30729;49.486;10.792;2023-07-09T04:13:37;10.77;;;5.85;;
44995;SDS011;30729;49.486;10.792;2023-07-09T04:16:03;13.55;;;6.55;;
44995;SDS011;30729;49.486;10.792;2023-07-09T04:18:28;12.57;;;6.40;;
44995;SDS011;30729;49.486;10.792;2023-07-09T04:20:53;11.45;;;6.85;;
44995;SDS011;30729;49.486;10.792;2023-07-09T04:23:18;11.93;;;6.67;;
44995;SDS011;30729;49.486;10.792;2023-07-09T04:25:44;13.15;;;6.90;;
44995;SDS011;30729;49.486;10.792;2023-07-09T04:28:09;15.60;;;6.95;;
44995;SDS011;30729;49.486;10.792;2023-07-09T04:30:34;12.30;;;6.40;;
44995;SDS011;30729;49.486;10.792;2023-07-09T04:32:59;12.30;;;6.78;;
44995;SDS011;30729;49.486;10.792;2023-07-09T04:35:25;11.18;;;6.97;;
44995;SDS011;30729;49.486;10.792;2023-07-09T04:37:50;12.45;;;6.40;;
44995;SDS011;30729;49.486;10.792;2023-07-09T04:40:17;12.68;;;7.10;;
44995;SDS011;30729;49.486;10.792;2023-07-09T04:42:42;10.38;;;6.50;;
44995;SDS011;30729;49.486;10.792;2023-07-09T04:45:08;11.05;;;7.20;;
44995;SDS011;30729;49.486;10.792;2023-07-09T04:47:34;11.07;;;6.47;;
44995;SDS011;30729;49.486;10.792;2023-07-09T04:49:59;12.38;;;7.68;;
44995;SDS011;30729;49.486;10.792;2023-07-09T04:52:24;12.80;;;7.28;;
44995;SDS011;30729;49.486;10.792;2023-07-09T04:54:50;12.60;;;6.75;;
44995;SDS011;30729;49.486;10.792;2023-07-09T04:57:15;11.32;;;6.60;;
44995;SDS011;30729;49.486;10.792;2023-07-09T04:59:41;12.18;;;7.57;;
44995;SDS011;30729;49.486;10.792;2023-07-09T05:02:06;11.88;;;6.75;;
44995;SDS011;30729;49.486;10.792;2023-07-09T05:04:32;11.95;;;6.93;;
44995;SDS011;30729;49.486;10.792;2023-07-09T05:06:57;12.60;;;7.93;;
44995;SDS011;30729;49.486;10.792;2023-07-09T05:09:22;11.98;;;6.78;;
44995;SDS011;30729;49.486;10.792;2023-07-09T05:11:48;14.00;;;7.35;;
44995;SDS011;30729;49.486;10.792;2023-07-09T05:14:14;11.93;;;7.10;;
44995;SDS011;30729;49.486;10.792;2023-07-09T05:16:39;12.55;;;7.05;;
44995;SDS011;30729;49.486;10.792;2023-07-09T05:19:06;13.30;;;7.47;;
44995;SDS011;30729;49.486;10.792;2023-07-09T05:21:31;11.73;;;7.50;;
44995;SDS011;30729;49.486;10.792;2023-07-09T05:23:56;14.13;;;7.47;;
44995;SDS011;30729;49.486;10.792;2023-07-09T05:26:22;13.47;;;7.23;;
44995;SDS011;30729;49.486;10.792;2023-07-09T05:28:47;14.57;;;7.47;;
44995;SDS011;30729;49.486;10.792;2023-07-09T05:31:12;12.37;;;7.27;;
44995;SDS011;30729;49.486;10.792;2023-07-09T05:33:37;12.73;;;7.30;;
44995;SDS011;30729;49.486;10.792;2023-07-09T05:36:02;12.25;;;7.20;;
44995;SDS011;30729;49.486;10.792;2023-07-09T05:38:28;12.70;;;7.70;;
44995;SDS011;30729;49.486;10.792;2023-07-09T05:41:02;13.45;;;7.57;;
44995;SDS011;30729;49.486;10.792;2023-07-09T05:43:28;14.10;;;7.95;;
44995;SDS011;30729;49.486;10.792;2023-07-09T05:45:54;10.40;;;6.72;;
44995;SDS011;30729;49.486;10.792;2023-07-09T05:48:19;11.30;;;7.17;;
44995;SDS011;30729;49.486;10.792;2023-07-09T05:50:44;11.60;;;6.83;;
44995;SDS011;30729;49.486;10.792;2023-07-09T05:53:09;12.25;;;7.78;;
44995;SDS011;30729;49.486;10.792;2023-07-09T05:55:34;10.53;;;6.80;;
44995;SDS011;30729;49.486;10.792;2023-07-09T05:58:00;12.50;;;7.10;;
44995;SDS011;30729;49.486;10.792;2023-07-09T06:00:25;9.70;;;6.27;;
44995;SDS011;30729;49.486;10.792;2023-07-09T06:02:50;12.15;;;8.35;;
44995;SDS011;30729;49.486;10.792;2023-07-09T06:05:16;13.38;;;7.32;;
44995;SDS011;30729;49.486;10.792;2023-07-09T06:07:41;15.02;;;7.82;;
44995;SDS011;30729;49.486;10.792;2023-07-09T06:10:06;12.60;;;8.20;;
44995;SDS011;30729;49.486;10.792;2023-07-09T06:12:32;12.00;;;7.47;;
44995;SDS011;30729;49.486;10.792;2023-07-09T06:14:57;12.57;;;7.35;;
44995;SDS011;30729;49.486;10.792;2023-07-09T06:17:23;12.25;;;7.88;;
44995;SDS011;30729;49.486;10.792;2023-07-09T06:19:48;11.50;;;7.50;;
44995;SDS011;30729;49.486;10.792;2023-07-09T06:22:13;14.37;;;7.50;;
44995;SDS011;30729;49.486;10.792;2023-07-09T06:24:38;12.83;;;7.27;;
44995;SDS011;30729;49.486;10.792;2023-07-09T06:27:03;12.38;;;7.35;;
44995;SDS011;30729;49.486;10.792;2023-07-09T06:29:29;11.57;;;7.15;;
44995;SDS011;30729;49.486;10.792;2023-07-09T06:31:54;12.27;;;6.70;;
44995;SDS011;30729;49.486;10.792;2023-07-09T06:34:19;11.93;;;6.68;;
44995;SDS011;30729;49.486;10.792;2023-07-09T06:36:45;13.20;;;6.80;;
44995;SDS011;30729;49.486;10.792;2023-07-09T06:39:10;10.52;;;6.03;;
44995;SDS011;30729;49.486;10.792;2023-07-09T06:41:35;11.07;;;6.50;;
44995;SDS011;30729;49.486;10.792;2023-07-09T06:44:04;10.50;;;5.97;;
44995;SDS011;30729;49.486;10.792;2023-07-09T06:46:29;10.10;;;5.88;;
44995;SDS011;30729;49.486;10.792;2023-07-09T06:48:54;11.45;;;6.47;;
44995;SDS011;30729;49.486;10.792;2023-07-09T06:51:19;12.17;;;6.53;;
44995;SDS011;30729;49.486;10.792;2023-07-09T06:53:44;10.43;;;6.05;;
44995;SDS011;30729;49.486;10.792;2023-07-09T06:56:12;9.43;;;5.22;;
44995;SDS011;30729;49.486;10.792;2023-07-09T06:58:38;11.40;;;5.45;;
44995;SDS011;30729;49.486;10.792;2023-07-09T07:01:04;9.80;;;4.13;;
44995;SDS011;30729;49.486;10.792;2023-07-09T07:03:29;8.10;;;4.85;;
44995;SDS011;30729;49.486;10.792;2023-07-09T07:05:55;8.38;;;4.97;;
44995;SDS011;30729;49.486;10.792;2023-07-09T07:08:21;9.25;;;5.38;;
44995;SDS011;30729;49.486;10.792;2023-07-09T07:10:48;9.27;;;5.65;;
44995;SDS011;30729;49.486;10.792;2023-07-09T07:13:13;11.88;;;6.28;;
44995;SDS011;30729;49.486;10.792;2023-07-09T07:15:39;9.32;;;5.50;;
44995;SDS011;30729;49.486;10.792;2023-07-09T07:18:04;9.30;;;5.47;;
44995;SDS011;30729;49.486;10.792;2023-07-09T07:20:30;9.82;;;4.80;;
44995;SDS011;30729;49.486;10.792;2023-07-09T07:22:55;11.60;;;6.57;;
44995;SDS011;30729;49.486;10.792;2023-07-09T07:25:21;10.35;;;5.97;;
44995;SDS011;30729;49.486;10.792;2023-07-09T07:27:46;10.98;;;5.07;;
44995;SDS011;30729;49.486;10.792;2023-07-09T07:30:11;8.87;;;5.30;;
44995;SDS011;30729;49.486;10.792;2023-07-09T07:32:38;11.20;;;6.00;;
44995;SDS011;30729;49.486;10.792;2023-07-09T07:35:03;9.82;;;5.43;;
44995;SDS011;30729;49.486;10.792;2023-07-09T07:37:28;10.70;;;6.28;;
44995;SDS011;30729;49.486;10.792;2023-07-09T07:39:53;9.18;;;5.15;;
44995;SDS011;30729;49.486;10.792;2023-07-09T07:42:19;9.13;;;5.53;;
44995;SDS011;30729;49.486;10.792;2023-07-09T07:44:44;11.15;;;5.50;;
44995;SDS011;30729;49.486;10.792;2023-07-09T07:47:09;10.15;;;5.72;;
44995;SDS011;30729;49.486;10.792;2023-07-09T07:49:36;9.68;;;5.78;;
44995;SDS011;30729;49.486;10.792;2023-07-09T07:52:02;9.50;;;5.20;;
44995;SDS011;30729;49.486;10.792;2023-07-09T07:54:28;11.25;;;5.65;;
44995;SDS011;30729;49.486;10.792;2023-07-09T07:56:53;8.85;;;5.60;;
44995;SDS011;30729;49.486;10.792;2023-07-09T07:59:18;8.03;;;5.33;;
44995;SDS011;30729;49.486;10.792;2023-07-09T08:01:43;8.20;;;5.22;;
44995;SDS011;30729;49.486;10.792;2023-07-09T08:04:09;8.45;;;5.93;;
44995;SDS011;30729;49.486;10.792;2023-07-09T08:06:34;8.90;;;5.65;;
44995;SDS011;30729;49.486;10.792;2023-07-09T08:08:59;9.70;;;6.43;;
44995;SDS011;30729;49.486;10.792;2023-07-09T08:11:24;10.93;;;6.20;;
44995;SDS011;30729;49.486;10.792;2023-07-09T08:13:49;11.18;;;6.82;;
44995;SDS011;30729;49.486;10.792;2023-07-09T08:16:15;9.55;;;6.50;;
44995;SDS011;30729;49.486;10.792;2023-07-09T08:18:40;9.35;;;7.53;;
44995;SDS011;30729;49.486;10.792;2023-07-09T08:21:06;8.33;;;7.20;;
44995;SDS011;30729;49.486;10.792;2023-07-09T08:23:31;9.27;;;7.57;;
44995;SDS011;30729;49.486;10.792;2023-07-09T08:25:57;9.88;;;7.80;;
44995;SDS011;30729;49.486;10.792;2023-07-09T08:28:23;8.80;;;7.95;;
44995;SDS011;30729;49.486;10.792;2023-07-09T08:30:48;10.23;;;9.20;;
44995;SDS011;30729;49.486;10.792;2023-07-09T08:33:16;11.00;;;9.98;;
44995;SDS011;30729;49.486;10.792;2023-07-09T08:35:44;11.38;;;9.43;;
44995;SDS011;30729;49.486;10.792;2023-07-09T08:38:09;12.80;;;11.75;;
44995;SDS011;30729;49.486;10.792;2023-07-09T08:40:38;12.13;;;11.02;;
44995;SDS011;30729;49.486;10.792;2023-07-09T08:43:06;10.90;;;9.90;;
44995;SDS011;30729;49.486;10.792;2023-07-09T08:48:31;12.27;;;11.25;;
44995;SDS011;30729;49.486;10.792;2023-07-09T08:50:58;13.00;;;11.82;;
44995;SDS011;30729;49.486;10.792;2023-07-09T08:53:34;15.20;;;14.10;;
44995;SDS011;30729;49.486;10.792;2023-07-09T08:56:00;15.98;;;14.77;;
44995;SDS011;30729;49.486;10.792;2023-07-09T08:58:28;15.20;;;14.00;;
44995;SDS011;30729;49.486;10.792;2023-07-09T09:05:45;19.10;;;17.70;;
44995;SDS011;30729;49.486;10.792;2023-07-09T09:08:23;18.05;;;16.65;;
44995;SDS011;30729;49.486;10.792;2023-07-09T09:13:41;19.08;;;17.75;;
44995;SDS011;30729;49.486;10.792;2023-07-09T09:16:23;19.13;;;17.63;;
44995;SDS011;30729;49.486;10.792;2023-07-09T09:18:49;17.20;;;15.82;;
44995;SDS011;30729;49.486;10.792;2023-07-09T09:21:16;25.40;;;23.60;;
44995;SDS011;30729;49.486;10.792;2023-07-09T09:23:53;28.77;;;26.55;;
44995;SDS011;30729;49.486;10.792;2023-07-09T09:26:32;23.42;;;21.52;;
44995;SDS011;30729;49.486;10.792;2023-07-09T09:28:58;27.02;;;25.27;;
44995;SDS011;30729;49.486;10.792;2023-07-09T09:31:24;27.33;;;25.63;;
44995;SDS011;30729;49.486;10.792;2023-07-09T09:33:50;25.17;;;23.58;;
44995;SDS011;30729;49.486;10.792;2023-07-09T09:36:17;30.35;;;28.27;;
44995;SDS011;30729;49.486;10.792;2023-07-09T09:38:42;28.88;;;27.13;;
44995;SDS011;30729;49.486;10.792;2023-07-09T09:41:12;34.65;;;32.47;;
44995;SDS011;30729;49.486;10.792;2023-07-09T09:43:37;28.42;;;26.58;;
44995;SDS011;30729;49.486;10.792;2023-07-09T09:46:05;34.17;;;32.28;;
44995;SDS011;30729;49.486;10.792;2023-07-09T09:48:31;34.13;;;32.20;;
44995;SDS011;30729;49.486;10.792;2023-07-09T09:50:57;36.47;;;34.47;;
44995;SDS011;30729;49.486;10.792;2023-07-09T09:53:26;39.83;;;37.63;;
44995;SDS011;30729;49.486;10.792;2023-07-09T09:55:53;36.40;;;34.40;;
44995;SDS011;30729;49.486;10.792;2023-07-09T09:58:19;37.75;;;35.67;;
44995;SDS011;30729;49.486;10.792;2023-07-09T10:00:49;54.88;;;51.97;;
44995;SDS011;30729;49.486;10.792;2023-07-09T10:03:15;50.78;;;48.08;;
44995;SDS011;30729;49.486;10.792;2023-07-09T10:05:44;53.65;;;50.95;;
44995;SDS011;30729;49.486;10.792;2023-07-09T10:10:38;48.03;;;45.58;;
44995;SDS011;30729;49.486;10.792;2023-07-09T10:13:07;53.50;;;50.72;;
44995;SDS011;30729;49.486;10.792;2023-07-09T10:15:42;47.70;;;45.25;;
44995;SDS011;30729;49.486;10.792;2023-07-09T10:18:21;51.90;;;49.10;;
44995;SDS011;30729;49.486;10.792;2023-07-09T10:20:56;52.92;;;50.00;;
44995;SDS011;30729;49.486;10.792;2023-07-09T10:23:27;55.85;;;52.92;;
44995;SDS011;30729;49.486;10.792;2023-07-09T10:25:55;55.75;;;52.85;;
44995;SDS011;30729;49.486;10.792;2023-07-09T10:28:32;69.45;;;66.05;;
44995;SDS011;30729;49.486;10.792;2023-07-09T10:31:07;68.78;;;65.53;;
44995;SDS011;30729;49.486;10.792;2023-07-09T10:38:37;76.57;;;72.95;;
44995;SDS011;30729;49.486;10.792;2023-07-09T10:41:07;80.43;;;76.45;;
44995;SDS011;30729;49.486;10.792;2023-07-09T10:46:38;77.20;;;73.55;;
44995;SDS011;30729;49.486;10.792;2023-07-09T10:49:04;84.28;;;80.32;;
44995;SDS011;30729;49.486;10.792;2023-07-09T10:51:41;89.68;;;85.55;;
44995;SDS011;30729;49.486;10.792;2023-07-09T10:54:14;95.35;;;90.68;;
44995;SDS011;30729;49.486;10.792;2023-07-09T10:56:40;96.97;;;92.32;;
44995;SDS011;30729;49.486;10.792;2023-07-09T10:59:26;93.47;;;89.10;;
44995;SDS011;30729;49.486;10.792;2023-07-09T11:01:57;101.03;;;95.95;;
44995;SDS011;30729;49.486;10.792;2023-07-09T11:06:48;79.03;;;75.30;;
44995;SDS011;30729;49.486;10.792;2023-07-09T11:09:37;70.03;;;66.65;;
44995;SDS011;30729;49.486;10.792;2023-07-09T11:12:06;54.47;;;51.70;;
44995;SDS011;30729;49.486;10.792;2023-07-09T11:14:36;63.20;;;60.15;;
44995;SDS011;30729;49.486;10.792;2023-07-09T11:17:03;62.88;;;59.88;;
44995;SDS011;30729;49.486;10.792;2023-07-09T11:19:29;66.70;;;63.47;;
44995;SDS011;30729;49.486;10.792;2023-07-09T11:22:05;71.30;;;67.80;;
44995;SDS011;30729;49.486;10.792;2023-07-09T11:24:44;80.85;;;77.05;;
44995;SDS011;30729;49.486;10.792;2023-07-09T11:27:16;91.60;;;87.30;;
44995;SDS011;30729;49.486;10.792;2023-07-09T11:29:45;90.70;;;86.35;;
44995;SDS011;30729;49.486;10.792;2023-07-09T11:32:17;101.55;;;97.05;;
44995;SDS011;30729;49.486;10.792;2023-07-09T11:34:46;98.32;;;93.80;;
44995;SDS011;30729;49.486;10.792;2023-07-09T11:37:14;108.57;;;103.55;;
44995;SDS011;30729;49.486;10.792;2023-07-09T11:42:24;107.77;;;102.63;;
44995;SDS011;30729;49.486;10.792;2023-07-09T11:44:49;101.72;;;97.03;;
44995;SDS011;30729;49.486;10.792;2023-07-09T11:47:19;116.03;;;110.35;;
44995;SDS011;30729;49.486;10.792;2023-07-09T11:49:56;104.57;;;99.68;;
44995;SDS011;30729;49.486;10.792;2023-07-09T11:52:28;97.57;;;92.95;;
44995;SDS011;30729;49.486;10.792;2023-07-09T11:54:53;107.97;;;102.80;;
44995;SDS011;30729;49.486;10.792;2023-07-09T11:57:19;102.82;;;98.05;;
44995;SDS011;30729;49.486;10.792;2023-07-09T11:59:44;95.17;;;90.70;;
44995;SDS011;30729;49.486;10.792;2023-07-09T12:02:13;101.25;;;96.68;;
44995;SDS011;30729;49.486;10.792;2023-07-09T12:04:40;106.80;;;101.80;;
44995;SDS011;30729;49.486;10.792;2023-07-09T12:07:05;106.60;;;101.53;;
44995;SDS011;30729;49.486;10.792;2023-07-09T12:09:37;114.50;;;109.30;;
44995;SDS011;30729;49.486;10.792;2023-07-09T12:12:04;119.20;;;113.72;;
44995;SDS011;30729;49.486;10.792;2023-07-09T12:14:30;109.45;;;104.45;;
44995;SDS011;30729;49.486;10.792;2023-07-09T12:16:55;129.73;;;123.70;;
44995;SDS011;30729;49.486;10.792;2023-07-09T12:19:21;134.13;;;128.00;;
44995;SDS011;30729;49.486;10.792;2023-07-09T12:21:48;114.75;;;109.55;;
44995;SDS011;30729;49.486;10.792;2023-07-09T12:24:15;106.90;;;101.85;;
44995;SDS011;30729;49.486;10.792;2023-07-09T12:26:42;100.53;;;95.90;;
44995;SDS011;30729;49.486;10.792;2023-07-09T12:29:08;105.80;;;100.87;;
44995;SDS011;30729;49.486;10.792;2023-07-09T12:31:34;111.78;;;106.65;;
44995;SDS011;30729;49.486;10.792;2023-07-09T12:33:59;97.90;;;93.30;;
44995;SDS011;30729;49.486;10.792;2023-07-09T12:36:25;95.68;;;91.25;;
44995;SDS011;30729;49.486;10.792;2023-07-09T12:38:51;110.03;;;104.93;;
44995;SDS011;30729;49.486;10.792;2023-07-09T12:41:24;82.95;;;79.13;;
44995;SDS011;30729;49.486;10.792;2023-07-09T12:43:51;91.00;;;86.75;;
44995;SDS011;30729;49.486;10.792;2023-07-09T12:46:17;92.22;;;87.90;;
44995;SDS011;30729;49.486;10.792;2023-07-09T12:48:42;90.43;;;86.35;;
44995;SDS011;30729;49.486;10.792;2023-07-09T12:51:08;89.15;;;85.03;;
44995;SDS011;30729;49.486;10.792;2023-07-09T12:53:33;81.40;;;77.55;;
44995;SDS011;30729;49.486;10.792;2023-07-09T12:55:59;85.90;;;81.70;;
44995;SDS011;30729;49.486;10.792;2023-07-09T12:58:26;80.88;;;77.20;;
44995;SDS011;30729;49.486;10.792;2023-07-09T13:00:53;74.90;;;71.32;;
44995;SDS011;30729;49.486;10.792;2023-07-09T13:03:19;94.43;;;89.85;;
44995;SDS011;30729;49.486;10.792;2023-07-09T13:06:02;81.80;;;78.00;;
44995;SDS011;30729;49.486;10.792;2023-07-09T13:08:31;80.68;;;76.75;;
44995;SDS011;30729;49.486;10.792;2023-07-09T13:10:57;93.63;;;89.18;;
44995;SDS011;30729;49.486;10.792;2023-07-09T13:13:23;93.33;;;89.07;;
44995;SDS011;30729;49.486;10.792;2023-07-09T13:15:56;84.20;;;80.22;;
44995;SDS011;30729;49.486;10.792;2023-07-09T13:18:22;76.38;;;72.80;;
44995;SDS011;30729;49.486;10.792;2023-07-09T13:20:47;56.95;;;54.15;;
44995;SDS011;30729;49.486;10.792;2023-07-09T13:23:17;56.33;;;53.10;;
44995;SDS011;30729;49.486;10.792;2023-07-09T13:25:42;54.33;;;51.45;;
44995;SDS011;30729;49.486;10.792;2023-07-09T13:28:49;53.40;;;50.72;;
44995;SDS011;30729;49.486;10.792;2023-07-09T13:31:13;59.30;;;56.42;;
44995;SDS011;30729;49.486;10.792;2023-07-09T13:33:39;69.18;;;65.72;;
44995;SDS011;30729;49.486;10.792;2023-07-09T13:36:05;60.17;;;57.20;;
44995;SDS011;30729;49.486;10.792;2023-07-09T13:38:31;70.30;;;66.95;;
44995;SDS011;30729;49.486;10.792;2023-07-09T13:40:58;66.18;;;63.05;;
44995;SDS011;30729;49.486;10.792;2023-07-09T13:45:52;53.95;;;51.22;;
44995;SDS011;30729;49.486;10.792;2023-07-09T13:48:18;52.63;;;49.95;;
44995;SDS011;30729;49.486;10.792;2023-07-09T13:50:44;53.53;;;50.53;;
44995;SDS011;30729;49.486;10.792;2023-07-09T13:53:12;61.28;;;57.97;;
44995;SDS011;30729;49.486;10.792;2023-07-09T13:55:38;68.60;;;65.25;;
44995;SDS011;30729;49.486;10.792;2023-07-09T13:58:03;70.60;;;67.20;;
44995;SDS011;30729;49.486;10.792;2023-07-09T14:00:28;76.75;;;73.03;;
44995;SDS011;30729;49.486;10.792;2023-07-09T14:02:53;86.43;;;82.37;;
44995;SDS011;30729;49.486;10.792;2023-07-09T14:05:18;109.57;;;104.70;;
44995;SDS011;30729;49.486;10.792;2023-07-09T14:07:44;101.00;;;96.33;;
44995;SDS011;30729;49.486;10.792;2023-07-09T14:10:10;89.88;;;85.65;;
44995;SDS011;30729;49.486;10.792;2023-07-09T14:12:37;92.15;;;87.68;;
44995;SDS011;30729;49.486;10.792;2023-07-09T14:15:05;103.60;;;98.85;;
44995;SDS011;30729;49.486;10.792;2023-07-09T14:17:35;89.75;;;85.57;;
44995;SDS011;30729;49.486;10.792;2023-07-09T14:20:00;100.67;;;96.07;;
44995;SDS011;30729;49.486;10.792;2023-07-09T14:22:28;92.90;;;88.65;;
44995;SDS011;30729;49.486;10.792;2023-07-09T14:24:54;111.88;;;106.65;;
44995;SDS011;30729;49.486;10.792;2023-07-09T14:27:20;111.07;;;105.97;;
44995;SDS011;30729;49.486;10.792;2023-07-09T14:29:45;110.53;;;105.40;;
44995;SDS011;30729;49.486;10.792;2023-07-09T14:32:55;101.13;;;96.57;;
44995;SDS011;30729;49.486;10.792;2023-07-09T14:34:56;105.75;;;100.88;;
44995;SDS011;30729;49.486;10.792;2023-07-09T14:37:21;99.45;;;94.93;;
44995;SDS011;30729;49.486;10.792;2023-07-09T14:39:46;93.13;;;88.83;;
44995;SDS011;30729;49.486;10.792;2023-07-09T14:42:12;106.70;;;101.80;;
44995;SDS011;30729;49.486;10.792;2023-07-09T14:44:37;96.00;;;91.68;;